Time;durP1;ratioP1;P1;durP2;ratioP2;P2;SDS_P1;SDS_P2;PMS_P1;PMS_P2;Temp;Humidity;BMP_temperature;BMP_pressure;BME280_temperature;BME280_humidity;BME280_pressure;Samples;Min_cycle;Max_cycle;Signal;HPM_P1;HPM_P2
2022/03/10 00:01:11;;;;;;;48.60;24.00;;;;;;;;;;5033536;28;97253;-73
2022/03/10 00:03:38;;;;;;;53.97;25.15;;;;;;;;;;5031221;27;99140;-73
2022/03/10 00:06:05;;;;;;;48.00;24.40;;;;;;;;;;5029949;28;97508;-73
2022/03/10 00:08:31;;;;;;;55.88;25.50;;;;;;;;;;5031276;28;95385;-73
2022/03/10 00:10:57;;;;;;;51.33;24.67;;;;;;;;;;5030542;28;96729;-73
2022/03/10 00:13:26;;;;;;;47.80;24.65;;;;;;;;;;5030622;28;97424;-74
2022/03/10 00:15:53;;;;;;;50.13;24.80;;;;;;;;;;5030955;28;95405;-74
2022/03/10 00:18:19;;;;;;;47.67;23.42;;;;;;;;;;5030412;28;96868;-72
2022/03/10 00:20:45;;;;;;;50.38;23.35;;;;;;;;;;5030818;28;97342;-74
2022/03/10 00:23:12;;;;;;;49.28;23.08;;;;;;;;;;5033975;28;95499;-74
2022/03/10 00:25:38;;;;;;;46.55;23.05;;;;;;;;;;5030401;28;97429;-74
2022/03/10 00:28:04;;;;;;;45.78;22.67;;;;;;;;;;5030436;28;95318;-74
2022/03/10 00:30:30;;;;;;;44.67;22.25;;;;;;;;;;5030838;28;97152;-74
2022/03/10 00:32:57;;;;;;;45.20;22.75;;;;;;;;;;5030176;28;97363;-74
2022/03/10 00:35:24;;;;;;;48.67;23.23;;;;;;;;;;5030620;28;95358;-74
2022/03/10 00:37:56;;;;;;;47.65;22.48;;;;;;;;;;5029714;28;96878;-74
2022/03/10 00:40:23;;;;;;;49.70;23.17;;;;;;;;;;5029714;28;97979;-74
2022/03/10 00:42:49;;;;;;;48.30;23.17;;;;;;;;;;5030555;28;95974;-74
2022/03/10 00:45:16;;;;;;;56.85;22.50;;;;;;;;;;5033205;27;96780;-74
2022/03/10 00:47:43;;;;;;;52.20;22.92;;;;;;;;;;5030139;27;95760;-74
2022/03/10 00:50:10;;;;;;;51.10;22.08;;;;;;;;;;5030289;27;96726;-74
2022/03/10 00:52:39;;;;;;;53.25;24.70;;;;;;;;;;5029962;27;97333;-74
2022/03/10 00:55:06;;;;;;;51.83;22.33;;;;;;;;;;5029099;27;95667;-74
2022/03/10 00:57:33;;;;;;;55.33;23.52;;;;;;;;;;5030364;28;96825;-74
2022/03/10 00:59:59;;;;;;;53.20;22.17;;;;;;;;;;5029864;28;97241;-74
2022/03/10 01:02:25;;;;;;;46.45;22.77;;;;;;;;;;5029473;27;95467;-73
2022/03/10 01:04:52;;;;;;;45.00;22.75;;;;;;;;;;5030455;28;96783;-74
2022/03/10 01:07:18;;;;;;;46.53;22.27;;;;;;;;;;5032783;28;97438;-74
2022/03/10 01:09:44;;;;;;;44.40;22.63;;;;;;;;;;5030047;28;96725;-73
2022/03/10 01:12:10;;;;;;;49.30;22.00;;;;;;;;;;5019649;28;97582;-74
2022/03/10 01:14:37;;;;;;;54.13;22.92;;;;;;;;;;5029870;28;95254;-74
2022/03/10 01:17:03;;;;;;;44.97;22.63;;;;;;;;;;5029950;27;95604;-74
2022/03/10 01:19:30;;;;;;;51.30;23.80;;;;;;;;;;5029684;28;97429;-74
2022/03/10 01:21:56;;;;;;;44.13;22.23;;;;;;;;;;5029009;28;96209;-74
2022/03/10 01:24:23;;;;;;;47.03;22.67;;;;;;;;;;5029455;27;95782;-74
2022/03/10 01:26:49;;;;;;;46.15;22.52;;;;;;;;;;5032643;27;96678;-73
2022/03/10 01:29:16;;;;;;;48.17;22.85;;;;;;;;;;5028685;27;95997;-74
2022/03/10 01:32:01;;;;;;;41.10;21.00;;;;;;;;;;5029324;28;97317;-74
2022/03/10 01:34:27;;;;;;;41.92;21.48;;;;;;;;;;5030108;28;95420;-74
2022/03/10 01:36:53;;;;;;;48.40;22.70;;;;;;;;;;5029340;28;96770;-74
2022/03/10 01:39:20;;;;;;;46.30;22.52;;;;;;;;;;5028737;28;97268;-74
2022/03/10 01:41:46;;;;;;;47.78;23.02;;;;;;;;;;5029155;28;95315;-74
2022/03/10 01:44:12;;;;;;;47.33;22.45;;;;;;;;;;5028978;28;96928;-74
2022/03/10 01:46:56;;;;;;;48.45;24.00;;;;;;;;;;5027573;28;95553;-74
2022/03/10 01:49:22;;;;;;;42.22;21.08;;;;;;;;;;5032499;28;95445;-74
2022/03/10 01:51:50;;;;;;;46.05;21.52;;;;;;;;;;5028606;28;97732;-74
2022/03/10 01:54:18;;;;;;;49.65;21.83;;;;;;;;;;5028669;27;96655;-74
2022/03/10 01:56:44;;;;;;;49.00;23.90;;;;;;;;;;5028972;28;97240;-74
2022/03/10 01:59:12;;;;;;;48.65;22.80;;;;;;;;;;5028829;28;97368;-74
2022/03/10 02:01:38;;;;;;;45.40;22.35;;;;;;;;;;5028941;27;95435;-73
2022/03/10 02:04:05;;;;;;;50.13;23.23;;;;;;;;;;5027883;27;97053;-74
2022/03/10 02:06:34;;;;;;;49.90;21.85;;;;;;;;;;5029395;28;97369;-74
2022/03/10 02:11:47;;;;;;;47.70;22.42;;;;;;;;;;5031403;28;96720;-74
2022/03/10 02:17:19;;;;;;;43.88;21.95;;;;;;;;;;5009054;28;97206;-73
2022/03/10 02:19:50;;;;;;;48.35;22.85;;;;;;;;;;5008559;28;97298;-74
2022/03/10 02:22:17;;;;;;;51.50;23.13;;;;;;;;;;5008907;28;95425;-74
2022/03/10 02:24:44;;;;;;;44.55;22.33;;;;;;;;;;5018775;28;96595;-74
2022/03/10 02:27:11;;;;;;;44.20;22.95;;;;;;;;;;5028044;27;97639;-74
2022/03/10 02:29:38;;;;;;;44.70;21.95;;;;;;;;;;5028756;28;95292;-74
2022/03/10 02:32:04;;;;;;;42.17;22.17;;;;;;;;;;5027902;28;97510;-73
2022/03/10 02:34:30;;;;;;;54.45;23.10;;;;;;;;;;5031607;27;97278;-74
2022/03/10 02:36:57;;;;;;;43.20;22.52;;;;;;;;;;5008930;28;96687;-74
2022/03/10 02:39:41;;;;;;;44.00;21.83;;;;;;;;;;5006736;28;95991;-73
2022/03/10 02:44:53;;;;;;;51.60;23.02;;;;;;;;;;5028134;27;95863;-74
2022/03/10 02:47:20;;;;;;;44.58;21.73;;;;;;;;;;5027776;27;96427;-74
2022/03/10 02:49:46;;;;;;;44.72;23.50;;;;;;;;;;5028511;28;95357;-73
2022/03/10 02:52:13;;;;;;;49.53;23.98;;;;;;;;;;5028276;28;97007;-74
2022/03/10 02:54:44;;;;;;;46.63;23.10;;;;;;;;;;5027894;27;97220;-74
2022/03/10 02:57:11;;;;;;;46.92;22.52;;;;;;;;;;5031118;28;95448;-74
2022/03/10 02:59:38;;;;;;;48.80;23.52;;;;;;;;;;5028232;28;97734;-74
2022/03/10 03:02:05;;;;;;;51.22;23.13;;;;;;;;;;5027746;28;95787;-74
2022/03/10 03:04:32;;;;;;;48.15;22.70;;;;;;;;;;5028360;27;96760;-71
2022/03/10 03:06:58;;;;;;;46.72;21.90;;;;;;;;;;5027500;28;97623;-74
2022/03/10 03:09:25;;;;;;;47.85;23.83;;;;;;;;;;5028300;27;95279;-73
2022/03/10 03:11:51;;;;;;;50.72;23.63;;;;;;;;;;5027116;28;97354;-74
2022/03/10 03:14:17;;;;;;;48.30;22.58;;;;;;;;;;5027778;28;97090;-73
2022/03/10 03:17:03;;;;;;;51.60;23.58;;;;;;;;;;5030404;27;95394;-74
2022/03/10 03:19:29;;;;;;;50.55;23.65;;;;;;;;;;5034935;28;96972;-73
2022/03/10 03:24:40;;;;;;;47.55;21.85;;;;;;;;;;5031619;27;95862;-74
2022/03/10 03:27:07;;;;;;;45.08;22.27;;;;;;;;;;5030953;28;97250;-74
2022/03/10 03:29:33;;;;;;;43.25;21.67;;;;;;;;;;5031431;28;95651;-74
2022/03/10 03:31:59;;;;;;;44.85;21.92;;;;;;;;;;5031719;28;96972;-74
2022/03/10 03:34:25;;;;;;;52.13;21.90;;;;;;;;;;5031556;28;97454;-74
2022/03/10 03:36:52;;;;;;;45.25;21.42;;;;;;;;;;5031354;28;95417;-74
2022/03/10 03:39:18;;;;;;;43.83;21.60;;;;;;;;;;5034404;28;95783;-73
2022/03/10 03:42:02;;;;;;;44.85;22.35;;;;;;;;;;5031060;27;95767;-74
2022/03/10 03:44:29;;;;;;;40.90;21.05;;;;;;;;;;5031273;28;97195;-73
2022/03/10 03:46:56;;;;;;;42.75;21.00;;;;;;;;;;5031538;28;97441;-74
2022/03/10 03:49:22;;;;;;;43.30;21.00;;;;;;;;;;5030540;27;95614;-73
2022/03/10 03:51:48;;;;;;;41.92;22.23;;;;;;;;;;5031429;28;96965;-74
2022/03/10 03:54:14;;;;;;;48.25;22.85;;;;;;;;;;5030605;28;97082;-74
2022/03/10 03:56:41;;;;;;;46.30;22.67;;;;;;;;;;5029243;28;95374;-74
2022/03/10 03:59:10;;;;;;;48.72;24.23;;;;;;;;;;5030865;28;96772;-74
2022/03/10 04:01:36;;;;;;;49.95;23.52;;;;;;;;;;5034003;28;97441;-74
2022/03/10 04:04:03;;;;;;;47.28;22.08;;;;;;;;;;5030522;28;97032;-74
2022/03/10 04:06:29;;;;;;;47.13;23.13;;;;;;;;;;5030747;27;96570;-73
2022/03/10 04:08:56;;;;;;;53.53;23.65;;;;;;;;;;5031166;28;95320;-73
2022/03/10 04:11:41;;;;;;;43.22;22.13;;;;;;;;;;5030246;27;97183;-73
2022/03/10 04:14:10;;;;;;;45.17;22.75;;;;;;;;;;5016664;28;97876;-73
2022/03/10 04:16:36;;;;;;;45.28;22.65;;;;;;;;;;5030822;27;95462;-73
2022/03/10 04:19:02;;;;;;;52.00;23.80;;;;;;;;;;5030351;28;96750;-73
2022/03/10 04:21:29;;;;;;;44.70;22.92;;;;;;;;;;5031000;28;97338;-73
2022/03/10 04:23:55;;;;;;;44.45;22.80;;;;;;;;;;5033898;28;95815;-73
2022/03/10 04:26:21;;;;;;;46.88;22.08;;;;;;;;;;5029269;28;97401;-73
2022/03/10 04:28:48;;;;;;;43.58;22.90;;;;;;;;;;5030653;28;97088;-73
2022/03/10 04:31:32;;;;;;;47.65;23.35;;;;;;;;;;5029253;28;95647;-73
2022/03/10 04:33:58;;;;;;;51.97;23.90;;;;;;;;;;5030442;28;97355;-74
2022/03/10 04:36:24;;;;;;;50.92;24.08;;;;;;;;;;5030884;27;95497;-74
2022/03/10 04:38:51;;;;;;;53.75;23.63;;;;;;;;;;5030534;27;97159;-75
2022/03/10 04:41:17;;;;;;;46.58;23.05;;;;;;;;;;5030585;27;97300;-74
2022/03/10 04:43:43;;;;;;;49.20;23.10;;;;;;;;;;5030524;28;95719;-74
2022/03/10 04:46:10;;;;;;;50.60;23.60;;;;;;;;;;5032994;28;95598;-74
2022/03/10 04:48:36;;;;;;;43.88;23.38;;;;;;;;;;5030576;27;95721;-74
2022/03/10 04:51:02;;;;;;;46.58;23.20;;;;;;;;;;5030553;28;97326;-74
2022/03/10 04:53:29;;;;;;;49.22;23.13;;;;;;;;;;5029898;27;97381;-74
2022/03/10 04:55:55;;;;;;;45.20;22.10;;;;;;;;;;5030519;28;95656;-73
2022/03/10 04:58:21;;;;;;;44.10;21.67;;;;;;;;;;5030168;28;96874;-74
2022/03/10 05:01:05;;;;;;;45.88;22.55;;;;;;;;;;5029754;28;96715;-74
2022/03/10 05:03:32;;;;;;;51.65;23.88;;;;;;;;;;5030293;28;95417;-74
2022/03/10 05:05:59;;;;;;;44.15;22.33;;;;;;;;;;5029812;27;95988;-74
2022/03/10 05:08:26;;;;;;;50.45;23.33;;;;;;;;;;5032515;28;97255;-74
2022/03/10 05:10:52;;;;;;;49.50;22.65;;;;;;;;;;5029742;28;97217;-74
2022/03/10 05:13:18;;;;;;;49.88;23.63;;;;;;;;;;5030033;28;97078;-74
2022/03/10 05:15:44;;;;;;;48.10;22.50;;;;;;;;;;5029471;28;96791;-74
2022/03/10 05:18:11;;;;;;;46.13;23.27;;;;;;;;;;5029337;27;97456;-74
2022/03/10 05:20:37;;;;;;;48.22;22.98;;;;;;;;;;5029522;28;96992;-73
2022/03/10 05:23:04;;;;;;;43.97;22.83;;;;;;;;;;5029323;28;96337;-74
2022/03/10 05:25:32;;;;;;;44.65;23.15;;;;;;;;;;5029764;27;96200;-74
2022/03/10 05:27:59;;;;;;;50.88;24.55;;;;;;;;;;5028865;27;97219;-74
2022/03/10 05:30:25;;;;;;;48.70;24.65;;;;;;;;;;5031633;27;95637;-74
2022/03/10 05:32:52;;;;;;;44.50;23.42;;;;;;;;;;5029268;27;97040;-73
2022/03/10 05:35:36;;;;;;;48.13;23.95;;;;;;;;;;5029895;28;95648;-74
2022/03/10 05:38:02;;;;;;;49.55;22.88;;;;;;;;;;5015383;28;96615;-74
2022/03/10 05:40:29;;;;;;;47.47;23.08;;;;;;;;;;5009201;28;97338;-74
2022/03/10 05:42:56;;;;;;;48.22;23.23;;;;;;;;;;5024772;28;95382;-74
2022/03/10 05:45:23;;;;;;;43.95;22.63;;;;;;;;;;5025778;27;96899;-74
2022/03/10 05:47:51;;;;;;;49.00;22.90;;;;;;;;;;5021639;28;97446;-74
2022/03/10 05:50:17;;;;;;;43.58;23.50;;;;;;;;;;5032120;27;95383;-73
2022/03/10 17:59:14;;;;;;;38.38;19.30;;;;;;;;;;5009664;28;95394;-76
2022/03/10 18:01:40;;;;;;;38.42;19.23;;;;;;;;;;5001902;28;97192;-76
2022/03/10 18:04:08;;;;;;;40.17;20.80;;;;;;;;;;5004095;28;95460;-76
2022/03/10 18:06:35;;;;;;;39.85;20.95;;;;;;;;;;5003826;28;97114;-77
2022/03/10 18:09:01;;;;;;;38.22;21.40;;;;;;;;;;5003823;28;96991;-74
2022/03/10 18:11:46;;;;;;;49.67;22.33;;;;;;;;;;5004653;28;95235;-76
2022/03/10 18:14:13;;;;;;;47.10;22.50;;;;;;;;;;5001785;28;96810;-75
2022/03/10 18:16:40;;;;;;;45.17;22.83;;;;;;;;;;5002380;28;97013;-75
2022/03/10 18:19:07;;;;;;;52.53;24.60;;;;;;;;;;4989457;28;97309;-74
2022/03/10 18:21:36;;;;;;;47.58;23.98;;;;;;;;;;4983708;28;96363;-75
2022/03/10 18:24:04;;;;;;;49.22;25.08;;;;;;;;;;4984195;28;95731;-74
2022/03/10 18:26:31;;;;;;;44.92;22.63;;;;;;;;;;4990488;28;96684;-75
2022/03/10 18:28:57;;;;;;;46.00;22.52;;;;;;;;;;5001745;28;97138;-75
2022/03/10 18:31:24;;;;;;;42.63;22.65;;;;;;;;;;5002725;28;95623;-75
2022/03/10 18:33:50;;;;;;;45.97;21.83;;;;;;;;;;5002277;28;97578;-77
2022/03/10 18:36:16;;;;;;;44.38;22.73;;;;;;;;;;5003336;28;97310;-77
2022/03/10 18:38:43;;;;;;;44.25;22.13;;;;;;;;;;5004119;28;95468;-77
2022/03/10 18:41:09;;;;;;;41.72;20.98;;;;;;;;;;5012348;28;96640;-77
2022/03/10 18:43:53;;;;;;;34.17;19.52;;;;;;;;;;5001111;28;95339;-76
2022/03/10 18:46:20;;;;;;;36.85;20.23;;;;;;;;;;5003590;28;96647;-77
2022/03/10 18:48:46;;;;;;;34.40;18.50;;;;;;;;;;5003546;28;96256;-76
2022/03/10 18:51:12;;;;;;;40.65;18.35;;;;;;;;;;5002959;28;95256;-75
2022/03/10 18:53:52;;;;;;;33.00;17.13;;;;;;;;;;5003793;28;96795;-76
2022/03/10 18:56:18;;;;;;;33.80;16.83;;;;;;;;;;5012712;28;97506;-77
2022/03/10 18:58:45;;;;;;;33.13;16.88;;;;;;;;;;5012194;28;95382;-74
2022/03/10 19:01:30;;;;;;;32.75;17.77;;;;;;;;;;5004091;28;96093;-74
2022/03/10 19:03:56;;;;;;;34.22;16.73;;;;;;;;;;5006386;28;97273;-75
2022/03/10 19:06:25;;;;;;;34.00;17.15;;;;;;;;;;5002836;28;96850;-75
2022/03/10 19:08:52;;;;;;;35.60;16.92;;;;;;;;;;4999215;28;97711;-75
2022/03/10 19:11:18;;;;;;;30.70;16.08;;;;;;;;;;5001055;28;96379;-75
2022/03/10 19:13:44;;;;;;;32.13;15.82;;;;;;;;;;4997942;28;96793;-73
2022/03/10 19:16:11;;;;;;;37.30;17.15;;;;;;;;;;4989778;28;97425;-73
2022/03/10 19:18:37;;;;;;;32.88;16.92;;;;;;;;;;4989588;28;95422;-75
2022/03/10 19:21:04;;;;;;;32.13;17.33;;;;;;;;;;4988677;28;96723;-76
2022/03/10 19:23:48;;;;;;;36.17;17.50;;;;;;;;;;4990220;28;96245;-76
2022/03/10 19:26:14;;;;;;;34.65;18.00;;;;;;;;;;4993004;28;96577;-77
2022/03/10 19:28:40;;;;;;;32.72;16.80;;;;;;;;;;4989422;28;97251;-76
2022/03/10 19:31:26;;;;;;;34.20;16.70;;;;;;;;;;4990156;28;95108;-74
2022/03/10 19:33:52;;;;;;;34.97;16.70;;;;;;;;;;4989487;28;97192;-74
2022/03/10 19:36:18;;;;;;;39.03;17.08;;;;;;;;;;4989248;28;97405;-74
2022/03/10 19:38:46;;;;;;;41.45;17.00;;;;;;;;;;4990085;28;95652;-74
2022/03/10 19:41:15;;;;;;;37.13;18.90;;;;;;;;;;4989676;28;96466;-74
2022/03/10 19:43:41;;;;;;;40.50;20.15;;;;;;;;;;4989156;28;97371;-77
2022/03/10 19:46:07;;;;;;;38.47;19.63;;;;;;;;;;4988784;28;96322;-74
2022/03/10 19:48:34;;;;;;;36.03;20.02;;;;;;;;;;4992394;28;97645;-77
2022/03/10 19:51:00;;;;;;;34.70;18.35;;;;;;;;;;4987068;28;95812;-74
2022/03/10 19:53:26;;;;;;;39.33;17.45;;;;;;;;;;4989129;28;96484;-74
2022/03/10 19:55:54;;;;;;;33.45;17.80;;;;;;;;;;4987313;28;97769;-76
2022/03/10 19:58:21;;;;;;;31.75;16.55;;;;;;;;;;5008595;28;95328;-76
2022/03/10 20:00:48;;;;;;;33.90;15.63;;;;;;;;;;5009138;28;96880;-76
2022/03/10 20:03:15;;;;;;;30.00;14.63;;;;;;;;;;4989129;28;97426;-77
2022/03/10 20:05:42;;;;;;;24.25;13.75;;;;;;;;;;4988969;28;95249;-74
2022/03/10 20:08:09;;;;;;;29.20;14.05;;;;;;;;;;4990474;28;96033;-76
2022/03/10 20:10:35;;;;;;;24.92;13.68;;;;;;;;;;5012058;28;95321;-76
2022/03/10 20:13:02;;;;;;;25.65;13.48;;;;;;;;;;4991136;28;96765;-75
2022/03/10 20:15:29;;;;;;;28.50;14.88;;;;;;;;;;4986415;28;97392;-73
2022/03/10 20:17:56;;;;;;;25.83;14.32;;;;;;;;;;4988812;28;96776;-76
2022/03/10 20:20:22;;;;;;;31.85;14.93;;;;;;;;;;4988076;28;96126;-76
2022/03/10 20:22:49;;;;;;;22.42;13.02;;;;;;;;;;4991283;28;97131;-74
2022/03/10 20:25:15;;;;;;;24.65;12.77;;;;;;;;;;5008942;28;95269;-76
2022/03/10 20:27:42;;;;;;;28.05;12.68;;;;;;;;;;4989915;28;96778;-74
2022/03/10 20:30:08;;;;;;;25.83;12.68;;;;;;;;;;4992079;28;97288;-75
2022/03/10 20:32:34;;;;;;;22.52;12.75;;;;;;;;;;4988763;28;97318;-75
2022/03/10 20:35:01;;;;;;;23.55;12.95;;;;;;;;;;4988119;28;96419;-75
2022/03/10 20:37:28;;;;;;;21.85;12.27;;;;;;;;;;4983351;28;95996;-74
2022/03/10 20:40:13;;;;;;;26.98;11.38;;;;;;;;;;4989498;28;97003;-74
2022/03/10 20:42:40;;;;;;;22.13;11.57;;;;;;;;;;4987632;28;96272;-74
2022/03/10 20:45:08;;;;;;;22.25;10.98;;;;;;;;;;4989110;28;96010;-73
2022/03/10 20:47:35;;;;;;;16.48;10.05;;;;;;;;;;4988084;28;96415;-75
2022/03/10 20:50:02;;;;;;;22.88;9.15;;;;;;;;;;4988360;28;97633;-74
2022/03/10 20:52:28;;;;;;;17.65;9.95;;;;;;;;;;4997282;28;95978;-74
2022/03/10 20:54:54;;;;;;;18.23;9.05;;;;;;;;;;5009806;28;96070;-74
2022/03/10 20:57:40;;;;;;;17.55;9.57;;;;;;;;;;4981112;28;95364;-75
2022/03/10 21:01:47;;;;;;;16.02;8.77;;;;;;;;;;4463771;27;18575970;-73
2022/03/10 21:04:14;;;;;;;16.95;8.18;;;;;;;;;;5106346;27;97444;-74
2022/03/10 21:06:41;;;;;;;18.40;9.32;;;;;;;;;;5106144;27;95427;-77
2022/03/10 21:09:07;;;;;;;13.85;8.45;;;;;;;;;;5106567;27;96577;-73
2022/03/10 21:11:52;;;;;;;16.88;9.10;;;;;;;;;;5104190;27;95775;-74
2022/03/10 21:14:20;;;;;;;17.52;8.48;;;;;;;;;;5108021;27;95368;-74
2022/03/10 21:16:48;;;;;;;14.98;8.27;;;;;;;;;;5104793;27;96149;-73
2022/03/10 21:19:16;;;;;;;16.15;8.35;;;;;;;;;;5084918;27;96472;-73
2022/03/10 21:21:43;;;;;;;18.25;8.93;;;;;;;;;;5101014;27;96001;-75
2022/03/10 21:24:09;;;;;;;17.05;8.43;;;;;;;;;;5105020;27;96365;-76
2022/03/10 21:26:35;;;;;;;15.65;8.73;;;;;;;;;;5107356;27;95664;-76
2022/03/10 21:29:20;;;;;;;16.35;7.95;;;;;;;;;;5106931;27;95291;-76
2022/03/10 21:31:46;;;;;;;19.10;9.68;;;;;;;;;;5105400;27;97384;-75
2022/03/10 21:34:13;;;;;;;18.67;9.55;;;;;;;;;;5107101;27;95700;-74
2022/03/10 21:36:58;;;;;;;15.23;8.90;;;;;;;;;;5107490;27;96865;-75
2022/03/10 21:39:24;;;;;;;15.02;8.27;;;;;;;;;;5104098;27;97423;-75
2022/03/10 21:41:51;;;;;;;14.55;8.75;;;;;;;;;;5106419;27;95659;-75
2022/03/10 21:44:18;;;;;;;13.75;8.02;;;;;;;;;;5109715;27;96828;-74
2022/03/10 21:46:45;;;;;;;15.65;9.25;;;;;;;;;;5107334;27;95744;-74
2022/03/10 21:49:12;;;;;;;16.13;9.23;;;;;;;;;;5107395;27;95658;-74
2022/03/10 21:51:38;;;;;;;18.27;8.90;;;;;;;;;;5106685;27;97296;-75
2022/03/10 21:54:07;;;;;;;14.38;8.73;;;;;;;;;;5106316;27;95484;-74
2022/03/10 21:56:34;;;;;;;17.42;9.02;;;;;;;;;;5107419;27;96730;-74
2022/03/10 21:59:00;;;;;;;17.75;8.50;;;;;;;;;;5107031;27;97315;-74
2022/03/10 22:01:27;;;;;;;16.95;8.30;;;;;;;;;;5106301;27;95368;-75
2022/03/10 22:03:53;;;;;;;14.90;8.82;;;;;;;;;;5107536;27;97155;-73
2022/03/10 22:06:19;;;;;;;16.15;9.05;;;;;;;;;;5109262;27;97323;-73
2022/03/10 22:08:47;;;;;;;12.75;7.80;;;;;;;;;;5105456;27;95905;-75
2022/03/10 22:11:13;;;;;;;15.13;8.90;;;;;;;;;;5102662;27;97507;-74
2022/03/10 22:13:39;;;;;;;13.98;8.18;;;;;;;;;;5092861;27;95369;-75
2022/03/10 22:16:06;;;;;;;16.40;8.50;;;;;;;;;;5093070;27;96766;-75
2022/03/10 22:18:33;;;;;;;15.48;8.82;;;;;;;;;;5093084;27;96081;-74
2022/03/10 22:20:59;;;;;;;17.92;8.93;;;;;;;;;;5092538;27;96892;-75
2022/03/10 22:23:26;;;;;;;14.77;8.50;;;;;;;;;;5092971;27;96747;-77
2022/03/10 22:25:52;;;;;;;14.98;8.68;;;;;;;;;;5091533;27;97443;-76
2022/03/10 22:31:04;;;;;;;17.67;8.93;;;;;;;;;;5092407;27;97330;-75
2022/03/10 22:33:30;;;;;;;14.73;8.02;;;;;;;;;;5092717;27;97289;-75
2022/03/10 22:35:56;;;;;;;16.05;8.02;;;;;;;;;;5092495;27;95734;-75
2022/03/10 22:38:23;;;;;;;12.70;7.47;;;;;;;;;;5092349;27;97303;-75
2022/03/10 22:40:49;;;;;;;15.73;8.35;;;;;;;;;;5092699;27;95741;-76
2022/03/10 22:43:15;;;;;;;13.57;7.15;;;;;;;;;;5091332;27;95852;-76
2022/03/10 22:45:42;;;;;;;13.52;7.50;;;;;;;;;;5092742;27;97353;-76
2022/03/10 22:48:08;;;;;;;16.40;8.23;;;;;;;;;;5092276;27;95390;-75
2022/03/10 22:56:04;;;;;;;13.57;7.75;;;;;;;;;;5071696;27;97218;-76
2022/03/10 22:58:31;;;;;;;14.88;8.40;;;;;;;;;;5084521;27;97389;-77
2022/03/10 23:00:57;;;;;;;21.75;7.70;;;;;;;;;;5088127;27;97013;-76
2022/03/10 23:03:23;;;;;;;15.48;8.15;;;;;;;;;;5091478;27;96764;-76
2022/03/10 23:08:35;;;;;;;15.55;7.80;;;;;;;;;;5092122;27;95218;-74
2022/03/10 23:11:05;;;;;;;14.45;7.43;;;;;;;;;;5091489;27;95851;-75
2022/03/10 23:16:16;;;;;;;15.38;8.25;;;;;;;;;;5091884;27;96765;-74
2022/03/10 23:18:43;;;;;;;16.38;8.18;;;;;;;;;;5091649;27;97323;-75
2022/03/10 23:21:27;;;;;;;15.90;8.00;;;;;;;;;;5091170;27;95342;-75
2022/03/10 23:26:39;;;;;;;18.15;8.73;;;;;;;;;;5071583;27;97591;-75
2022/03/10 23:29:05;;;;;;;15.38;8.15;;;;;;;;;;5091901;27;95631;-75
2022/03/10 23:31:32;;;;;;;13.88;7.90;;;;;;;;;;5081912;27;96727;-76
2022/03/10 23:34:15;;;;;;;14.85;7.95;;;;;;;;;;5087490;27;95761;-76
2022/03/10 23:36:42;;;;;;;20.02;8.13;;;;;;;;;;5091887;27;96752;-76
2022/03/10 23:39:08;;;;;;;16.42;8.10;;;;;;;;;;5089625;27;97663;-75
2022/03/10 23:41:37;;;;;;;14.15;7.93;;;;;;;;;;5092151;27;95257;-76
2022/03/10 23:44:04;;;;;;;17.92;8.25;;;;;;;;;;5090670;27;95860;-75
2022/03/10 23:46:30;;;;;;;17.35;8.32;;;;;;;;;;5085316;27;97762;-76
2022/03/10 23:48:57;;;;;;;16.48;8.43;;;;;;;;;;5090703;27;95504;-75
2022/03/10 23:51:23;;;;;;;20.65;8.48;;;;;;;;;;5075219;27;96476;-74
2022/03/10 23:53:49;;;;;;;18.42;9.13;;;;;;;;;;5068486;27;96985;-75
2022/03/10 23:56:18;;;;;;;22.45;11.43;;;;;;;;;;5074194;27;95195;-75
2022/03/10 23:59:01;;;;;;;17.98;8.32;;;;;;;;;;5089000;27;95881;-75
